Sandberg, California
Current Conditions -  °F | °C
As of 7:48 AM on Friday 19 Dec 2014 (Local Time) from KSDB Reporting Station
Clear Clear  
Wind Chill: 40°   Ceiling: Unl
Heat Index: 43°   Visibility: 10mi
Dew Point: 35°   Wind: 5mph
Humidity: 74%   Direction: 350°N
Pressure: 30.21"   Gusts: NA
Location:  34.6849°N, 118.558°W
Report Text: KSDB 191548Z AUTO 35004KT 10SM CLR 06/02 A3021 RMK AO2 SLP217 T00610017
Loading
Personal Weather Stations






























Interactive Weather Map New forecast layout! Learn more

10-Day Weather Forecast

Advertisements
Track Severe Weather on mobile